createdAt,value
2018-04-06T00:00:46.876Z,99.90
2018-04-06T00:01:49.377Z,99.90
2018-04-06T00:02:51.901Z,99.90
2018-04-06T00:03:55.165Z,99.90
2018-04-06T00:04:57.669Z,99.90
2018-04-06T00:06:00.169Z,99.90
2018-04-06T00:07:02.681Z,99.90
2018-04-06T00:08:05.984Z,99.90
2018-04-06T00:09:09.371Z,99.90
2018-04-06T00:10:12.634Z,99.90
2018-04-06T00:11:15.903Z,99.90
2018-04-06T00:12:18.395Z,99.90
2018-04-06T00:13:20.976Z,99.90
2018-04-06T00:14:24.232Z,99.90
2018-04-06T00:15:26.725Z,99.90
2018-04-06T00:16:29.232Z,99.90
2018-04-06T00:17:31.747Z,99.90
2018-04-06T00:18:34.281Z,99.90
2018-04-06T00:19:36.787Z,99.90
2018-04-06T00:20:39.282Z,99.90
2018-04-06T00:21:41.808Z,99.90
2018-04-06T00:22:44.318Z,99.90
2018-04-06T00:23:46.841Z,99.90
2018-04-06T00:24:49.321Z,99.90
2018-04-06T00:25:51.829Z,99.90
2018-04-06T00:26:54.324Z,99.90
2018-04-06T00:27:57.604Z,99.90
2018-04-06T00:29:00.899Z,99.90
2018-04-06T00:30:04.170Z,99.90
2018-04-06T00:31:07.447Z,99.90
2018-04-06T00:32:09.952Z,99.90
2018-04-06T00:33:13.202Z,99.90
2018-04-06T00:34:15.704Z,99.90
2018-04-06T00:35:18.967Z,99.90
2018-04-06T00:36:21.464Z,99.90
2018-04-06T00:37:24.716Z,99.90
2018-04-06T00:38:27.206Z,99.90
2018-04-06T00:39:29.767Z,99.90
2018-04-06T00:40:32.279Z,99.90
2018-04-06T00:41:34.808Z,99.90
2018-04-06T00:42:37.312Z,99.90
2018-04-06T00:43:40.576Z,99.90
2018-04-06T00:44:43.069Z,99.90
2018-04-06T00:45:45.576Z,99.90
2018-04-06T00:46:48.077Z,99.90
2018-04-06T00:47:51.356Z,99.90
2018-04-06T00:48:53.838Z,99.90
2018-04-06T00:49:56.354Z,99.90
2018-04-06T00:50:58.843Z,99.90
2018-04-06T00:52:01.478Z,99.90
2018-04-06T00:53:04.042Z,99.90
2018-04-06T00:54:07.316Z,99.90
2018-04-06T00:55:09.837Z,99.90
2018-04-06T00:56:12.343Z,99.90
2018-04-06T00:57:15.624Z,99.90
2018-04-06T00:58:18.112Z,99.90
2018-04-06T00:59:21.505Z,99.90
2018-04-06T01:00:24.784Z,99.90
2018-04-06T01:01:27.295Z,99.90
2018-04-06T01:02:29.968Z,99.90
2018-04-06T01:03:32.473Z,99.90
2018-04-06T01:04:35.009Z,99.90
2018-04-06T01:05:37.501Z,99.90
2018-04-06T01:06:40.008Z,99.90
2018-04-06T01:07:42.554Z,99.90
2018-04-06T01:08:45.050Z,99.90
2018-04-06T01:09:47.566Z,99.90
2018-04-06T01:10:50.058Z,99.90
2018-04-06T01:11:52.826Z,99.90
2018-04-06T01:12:55.374Z,99.90
2018-04-06T01:13:57.869Z,99.90
2018-04-06T01:15:00.371Z,99.90
2018-04-06T01:16:02.871Z,99.90
2018-04-06T01:17:06.132Z,99.90
2018-04-06T01:18:08.644Z,99.90
2018-04-06T01:19:11.143Z,99.90
2018-04-06T01:20:13.622Z,99.90
2018-04-06T01:21:16.123Z,99.90
2018-04-06T01:22:18.631Z,99.90
2018-04-06T01:23:21.120Z,99.90
2018-04-06T01:24:23.598Z,99.90
2018-04-06T01:25:26.110Z,99.90
2018-04-06T01:26:28.604Z,99.90
2018-04-06T01:27:31.102Z,99.90
2018-04-06T01:28:33.601Z,99.90
2018-04-06T01:29:36.092Z,99.90
2018-04-06T01:30:39.378Z,99.90
2018-04-06T01:31:42.648Z,99.90
2018-04-06T01:32:45.135Z,99.90
2018-04-06T01:33:48.401Z,99.90
2018-04-06T01:34:50.892Z,99.90
2018-04-06T01:35:53.391Z,99.90
2018-04-06T01:36:55.887Z,99.90
2018-04-06T01:37:58.394Z,99.90
2018-04-06T01:39:00.888Z,99.90
2018-04-06T01:40:03.429Z,99.90
2018-04-06T01:41:05.914Z,99.90
2018-04-06T01:42:09.187Z,99.90
2018-04-06T01:43:11.675Z,99.90
2018-04-06T01:44:14.154Z,99.90
2018-04-06T01:45:17.400Z,99.90
2018-04-06T01:46:19.895Z,99.90
2018-04-06T01:47:22.424Z,99.90
2018-04-06T01:48:24.905Z,99.90
2018-04-06T01:49:27.412Z,99.90
2018-04-06T01:50:29.898Z,99.90
2018-04-06T01:51:33.171Z,99.90
2018-04-06T01:52:36.419Z,99.90
2018-04-06T01:53:38.915Z,99.90
2018-04-06T01:54:41.405Z,99.90
2018-04-06T01:55:44.661Z,99.90
2018-04-06T01:56:47.140Z,99.90
2018-04-06T01:57:49.645Z,99.90
2018-04-06T01:58:52.151Z,99.90
2018-04-06T01:59:54.667Z,99.90
2018-04-06T02:00:57.161Z,99.90
2018-04-06T02:01:59.662Z,99.90
2018-04-06T02:03:02.176Z,99.90
2018-04-06T02:04:05.443Z,99.90
2018-04-06T02:05:08.070Z,99.90
2018-04-06T02:06:10.588Z,99.90
2018-04-06T02:07:13.076Z,99.90
2018-04-06T02:08:16.322Z,99.90
2018-04-06T02:09:18.822Z,99.90
2018-04-06T02:10:21.333Z,99.90
2018-04-06T02:11:23.832Z,99.90
2018-04-06T02:12:26.330Z,99.90
2018-04-06T02:13:28.839Z,99.90
2018-04-06T02:14:31.345Z,99.90
2018-04-06T02:15:33.863Z,99.90
2018-04-06T02:16:36.371Z,99.90
2018-04-06T02:17:38.857Z,99.90
2018-04-06T02:18:41.359Z,99.90
2018-04-06T02:19:43.862Z,99.90
2018-04-06T02:20:46.356Z,99.90
2018-04-06T02:21:48.844Z,99.90
2018-04-06T02:22:51.370Z,99.90
2018-04-06T02:23:53.866Z,99.90
2018-04-06T02:24:56.345Z,99.90
2018-04-06T02:25:58.826Z,99.90
2018-04-06T02:27:01.318Z,99.90
2018-04-06T02:28:04.584Z,99.90
2018-04-06T02:29:07.093Z,99.90
2018-04-06T02:30:10.379Z,99.90
2018-04-06T02:31:13.632Z,99.90
2018-04-06T02:32:16.130Z,99.90
2018-04-06T02:33:19.398Z,99.90
2018-04-06T02:34:21.889Z,99.90
2018-04-06T02:35:25.169Z,99.90
2018-04-06T02:36:27.667Z,99.90
2018-04-06T02:37:30.157Z,99.90
2018-04-06T02:38:32.722Z,99.90
2018-04-06T02:39:35.215Z,99.90
2018-04-06T02:40:37.723Z,99.90
2018-04-06T02:41:40.231Z,99.90
2018-04-06T02:42:42.718Z,99.90
2018-04-06T02:43:45.218Z,99.90
2018-04-06T02:44:47.722Z,99.90
2018-04-06T02:45:50.980Z,99.90
2018-04-06T02:46:53.480Z,99.90
2018-04-06T02:47:55.974Z,99.90
2018-04-06T02:48:58.457Z,99.90
2018-04-06T02:50:01.010Z,99.90
2018-04-06T02:51:03.507Z,99.90
2018-04-06T02:52:06.009Z,99.90
2018-04-06T02:53:08.509Z,99.90
2018-04-06T02:54:11.079Z,99.90
2018-04-06T02:55:13.575Z,99.90
2018-04-06T02:56:16.087Z,99.90
2018-04-06T02:57:18.693Z,99.90
2018-04-06T02:58:21.201Z,99.90
2018-04-06T02:59:23.708Z,99.90
2018-04-06T03:00:26.987Z,99.90
2018-04-06T03:01:29.491Z,99.90
2018-04-06T03:02:31.984Z,99.90
2018-04-06T03:03:34.475Z,99.90
2018-04-06T03:04:36.975Z,99.90
2018-04-06T03:05:39.473Z,99.90
2018-04-06T03:06:41.970Z,99.90
2018-04-06T03:07:44.445Z,99.90
2018-04-06T03:08:46.942Z,99.90
2018-04-06T03:09:49.426Z,99.90
2018-04-06T03:10:52.710Z,99.90
2018-04-06T03:11:55.207Z,99.90
2018-04-06T03:12:57.692Z,99.90
2018-04-06T03:14:00.200Z,99.90
2018-04-06T03:15:02.682Z,99.90
2018-04-06T03:16:05.199Z,99.90
2018-04-06T03:17:07.697Z,99.90
2018-04-06T03:18:10.295Z,99.90
2018-04-06T03:19:12.780Z,99.90
2018-04-06T03:20:16.033Z,99.90
2018-04-06T03:21:18.540Z,99.90
2018-04-06T03:22:21.823Z,99.90
2018-04-06T03:23:24.320Z,99.90
2018-04-06T03:24:26.803Z,99.90
2018-04-06T03:25:29.361Z,99.90
2018-04-06T03:26:31.860Z,99.90
2018-04-06T03:27:34.372Z,99.90
2018-04-06T03:28:38.384Z,99.90
2018-04-06T03:29:41.643Z,99.90
2018-04-06T03:30:44.147Z,99.90
2018-04-06T03:31:47.402Z,99.90
2018-04-06T03:32:49.906Z,99.90
2018-04-06T03:33:53.174Z,99.90
2018-04-06T03:34:55.678Z,99.90
2018-04-06T03:35:58.181Z,99.90
2018-04-06T03:37:00.670Z,99.90
2018-04-06T03:38:03.193Z,99.90
2018-04-06T03:39:05.709Z,99.90
2018-04-06T03:40:08.210Z,99.90
2018-04-06T03:41:11.615Z,99.90
2018-04-06T03:42:14.901Z,99.90
2018-04-06T03:43:18.180Z,99.90
2018-04-06T03:44:21.441Z,99.90
2018-04-06T03:45:23.930Z,99.90
2018-04-06T03:46:26.427Z,99.90
2018-04-06T03:47:28.925Z,99.90
2018-04-06T03:48:31.433Z,99.90
2018-04-06T03:49:33.925Z,99.90
2018-04-06T03:50:37.197Z,99.90
2018-04-06T03:51:39.682Z,99.90
2018-04-06T03:52:42.944Z,99.90
2018-04-06T03:53:45.426Z,99.90
2018-04-06T03:54:48.680Z,99.90
2018-04-06T03:55:51.175Z,99.90
2018-04-06T03:56:53.682Z,99.90
2018-04-06T03:57:56.190Z,99.90
2018-04-06T03:58:58.671Z,99.90
2018-04-06T04:00:01.183Z,99.90
2018-04-06T04:01:04.441Z,99.90
2018-04-06T04:02:06.931Z,99.90
2018-04-06T04:03:10.312Z,99.90
2018-04-06T04:04:12.808Z,99.90
2018-04-06T04:05:15.290Z,99.90
2018-04-06T04:06:17.780Z,99.90
2018-04-06T04:07:20.272Z,99.90
2018-04-06T04:08:22.784Z,99.90
2018-04-06T04:09:25.271Z,99.90
2018-04-06T04:10:27.746Z,99.90
2018-04-06T04:11:30.232Z,99.90
2018-04-06T04:12:32.738Z,99.90
2018-04-06T04:13:35.271Z,99.90
2018-04-06T04:14:37.771Z,99.90
2018-04-06T04:15:40.272Z,99.90
2018-04-06T04:16:42.755Z,99.90
2018-04-06T04:17:45.254Z,99.90
2018-04-06T04:18:47.744Z,99.90
2018-04-06T04:19:50.256Z,99.90
2018-04-06T04:20:52.751Z,99.90
2018-04-06T04:21:55.245Z,99.90
2018-04-06T04:22:57.737Z,99.90
2018-04-06T04:24:00.218Z,99.90
2018-04-06T04:25:03.484Z,99.90
2018-04-06T04:26:05.989Z,99.90
2018-04-06T04:27:09.239Z,99.90
2018-04-06T04:28:11.737Z,99.90
2018-04-06T04:29:15.012Z,99.90
2018-04-06T04:30:17.525Z,99.90
2018-04-06T04:31:20.027Z,99.90
2018-04-06T04:32:22.514Z,99.90
2018-04-06T04:33:25.013Z,99.90
2018-04-06T04:34:28.303Z,99.90
2018-04-06T04:35:30.792Z,99.90
2018-04-06T04:36:33.295Z,99.90
2018-04-06T04:37:35.782Z,99.90
2018-04-06T04:38:38.277Z,99.90
2018-04-06T04:39:41.540Z,99.90
2018-04-06T04:40:44.033Z,99.90
2018-04-06T04:41:47.297Z,99.90
2018-04-06T04:42:49.797Z,99.90
2018-04-06T04:43:53.048Z,99.90
2018-04-06T04:44:55.537Z,99.90
2018-04-06T04:45:58.815Z,99.90
2018-04-06T04:47:01.324Z,99.90
2018-04-06T04:48:03.898Z,99.90
2018-04-06T04:49:06.383Z,99.90
2018-04-06T04:50:08.870Z,99.90
2018-04-06T04:51:11.412Z,99.90
2018-04-06T04:52:13.930Z,99.90
2018-04-06T04:53:16.696Z,99.90
2018-04-06T04:54:19.160Z,99.90
2018-04-06T04:55:21.650Z,99.90
2018-04-06T04:56:24.146Z,99.90
2018-04-06T04:57:27.416Z,99.90
2018-04-06T04:58:29.904Z,99.90
2018-04-06T04:59:33.158Z,99.90
2018-04-06T05:00:35.645Z,99.90
2018-04-06T05:01:38.128Z,99.90
2018-04-06T05:02:41.414Z,99.90
2018-04-06T05:03:44.677Z,99.90
2018-04-06T05:04:47.157Z,99.90
2018-04-06T05:05:49.650Z,99.90
2018-04-06T05:06:52.902Z,99.90
2018-04-06T05:07:55.421Z,99.90
2018-04-06T05:08:57.938Z,99.90
2018-04-06T05:10:00.461Z,99.90
2018-04-06T05:11:02.968Z,99.90
2018-04-06T05:12:05.468Z,99.90
2018-04-06T05:13:07.995Z,99.90
2018-04-06T05:14:10.642Z,99.90
2018-04-06T05:15:13.199Z,99.90
2018-04-06T05:16:16.459Z,99.90
2018-04-06T05:17:18.947Z,99.90
2018-04-06T05:18:21.474Z,99.90
2018-04-06T05:19:23.974Z,99.90
2018-04-06T05:20:26.451Z,99.90
2018-04-06T05:21:29.711Z,99.90
2018-04-06T05:22:32.204Z,99.90
2018-04-06T05:23:36.226Z,99.90
2018-04-06T05:24:39.548Z,99.90
2018-04-06T05:25:41.996Z,99.90
2018-04-06T05:26:45.244Z,99.90
2018-04-06T05:27:47.730Z,99.90
2018-04-06T05:28:50.444Z,99.90
2018-04-06T05:29:52.935Z,99.90
2018-04-06T05:30:55.431Z,99.90
2018-04-06T05:31:57.918Z,99.90
2018-04-06T05:33:01.219Z,99.90
2018-04-06T05:34:04.485Z,99.90
2018-04-06T05:35:06.977Z,99.90
2018-04-06T05:36:10.392Z,99.90
2018-04-06T05:37:12.893Z,99.90
2018-04-06T05:38:15.402Z,99.90
2018-04-06T05:39:18.667Z,99.90
2018-04-06T05:40:21.165Z,99.90
2018-04-06T05:41:24.427Z,99.90
2018-04-06T05:42:26.916Z,99.90
2018-04-06T05:43:30.239Z,99.90
2018-04-06T05:44:32.745Z,99.90
2018-04-06T05:45:35.232Z,99.90
2018-04-06T05:46:37.717Z,99.90
2018-04-06T05:47:40.991Z,99.90
2018-04-06T05:48:43.489Z,99.90
2018-04-06T05:49:46.739Z,99.90
2018-04-06T05:50:49.227Z,99.90
2018-04-06T05:51:52.478Z,99.90
2018-04-06T05:52:54.968Z,99.90
2018-04-06T05:53:58.238Z,99.90
2018-04-06T05:55:00.739Z,99.90
2018-04-06T05:56:03.231Z,99.90
2018-04-06T05:57:06.491Z,99.90
2018-04-06T05:58:09.001Z,99.90
2018-04-06T05:59:11.592Z,99.90
2018-04-06T06:00:14.084Z,99.90
2018-04-06T06:01:16.577Z,99.90
2018-04-06T06:02:19.073Z,99.90
2018-04-06T06:03:21.583Z,99.90
2018-04-06T06:04:24.066Z,99.90
2018-04-06T06:05:26.549Z,99.90
2018-04-06T06:06:29.026Z,99.90
2018-04-06T06:07:33.054Z,99.90
2018-04-06T06:08:36.326Z,99.90
2018-04-06T06:09:39.594Z,99.90
2018-04-06T06:10:42.118Z,99.90
2018-04-06T06:11:44.626Z,99.90
2018-04-06T06:12:47.119Z,99.90
2018-04-06T06:13:49.607Z,99.90
2018-04-06T06:14:52.852Z,99.90
2018-04-06T06:15:55.346Z,99.90
2018-04-06T06:16:57.868Z,99.90
2018-04-06T06:18:00.350Z,99.90
2018-04-06T06:19:02.841Z,99.90
2018-04-06T06:20:05.340Z,99.90
2018-04-06T06:21:08.632Z,99.90
2018-04-06T06:22:12.075Z,99.90
2018-04-06T06:23:14.810Z,99.90
2018-04-06T06:24:18.060Z,98.10
2018-04-06T06:25:20.560Z,98.10
2018-04-06T06:26:23.844Z,95.60
2018-04-06T06:27:27.114Z,95.40
2018-04-06T06:28:29.594Z,95.40
2018-04-06T06:29:32.087Z,95.40
2018-04-06T06:30:34.584Z,94.80
2018-04-06T06:31:37.097Z,93.60
2018-04-06T06:32:39.586Z,92.40
2018-04-06T06:33:42.844Z,91.40
2018-04-06T06:34:45.344Z,91.50
2018-04-06T06:35:48.620Z,90.60
2018-04-06T06:36:51.131Z,90.60
2018-04-06T06:37:53.897Z,87.80
2018-04-06T06:38:56.389Z,87.60
2018-04-06T06:39:58.895Z,86.30
2018-04-06T06:41:01.404Z,84.60
2018-04-06T06:42:03.908Z,84.30
2018-04-06T06:43:06.471Z,84.40
2018-04-06T06:44:09.781Z,83.80
2018-04-06T06:45:12.279Z,83.80
2018-04-06T06:46:14.796Z,84.00
2018-04-06T06:47:17.320Z,83.00
2018-04-06T06:48:19.814Z,82.80
2018-04-06T06:49:22.329Z,80.90
2018-04-06T06:50:24.841Z,80.50
2018-04-06T06:51:28.121Z,79.10
2018-04-06T06:52:30.638Z,79.10
2018-04-06T06:53:33.132Z,79.10
2018-04-06T06:54:35.625Z,79.20
2018-04-06T06:55:38.119Z,78.90
2018-04-06T06:56:40.673Z,78.20
2018-04-06T06:57:43.927Z,77.50
2018-04-06T06:58:46.421Z,77.60
2018-04-06T06:59:48.910Z,77.50
2018-04-06T07:00:51.417Z,77.00
2018-04-06T07:01:53.926Z,79.50
2018-04-06T07:02:56.469Z,79.40
2018-04-06T07:03:58.982Z,81.50
2018-04-06T07:05:02.239Z,80.40
2018-04-06T07:06:04.763Z,80.30
2018-04-06T07:07:07.341Z,79.60
2018-04-06T07:08:09.842Z,80.70
2018-04-06T07:09:12.420Z,80.40
2018-04-06T07:10:14.924Z,80.00
2018-04-06T07:11:18.189Z,76.70
2018-04-06T07:12:20.691Z,76.70
2018-04-06T07:13:23.958Z,74.70
2018-04-06T07:14:26.475Z,74.70
2018-04-06T07:15:28.987Z,75.80
2018-04-06T07:16:31.493Z,74.00
2018-04-06T07:17:34.013Z,74.10
2018-04-06T07:18:36.498Z,73.50
2018-04-06T07:19:39.016Z,71.10
2018-04-06T07:20:41.515Z,69.90
2018-04-06T07:21:44.008Z,70.30
2018-04-06T07:22:46.508Z,71.60
2018-04-06T07:23:49.770Z,72.50
2018-04-06T07:24:52.281Z,72.40
2018-04-06T07:25:54.790Z,71.20
2018-04-06T07:26:57.308Z,71.40
2018-04-06T07:28:00.606Z,69.70
2018-04-06T07:29:03.158Z,69.70
2018-04-06T07:30:06.445Z,66.40
2018-04-06T07:31:09.711Z,66.40
2018-04-06T07:32:12.415Z,66.40
2018-04-06T07:33:15.932Z,65.00
2018-04-06T07:34:18.446Z,65.00
2018-04-06T07:35:20.959Z,66.10
2018-04-06T07:36:24.243Z,67.90
2018-04-06T07:37:27.507Z,66.70
2018-04-06T07:38:30.050Z,66.50
2018-04-06T07:39:32.583Z,65.90
2018-04-06T07:40:35.096Z,67.60
2018-04-06T07:41:37.594Z,67.20
2018-04-06T07:42:40.107Z,65.40
2018-04-06T07:43:42.600Z,65.50
2018-04-06T07:44:45.108Z,64.10
2018-04-06T07:45:47.605Z,64.20
2018-04-06T07:46:50.117Z,64.70
2018-04-06T07:47:52.629Z,64.40
2018-04-06T07:48:55.900Z,64.90
2018-04-06T07:49:58.433Z,64.80
2018-04-06T07:51:00.955Z,63.80
2018-04-06T07:52:03.467Z,64.30
2018-04-06T07:53:05.952Z,64.20
2018-04-06T07:54:08.452Z,63.40
2018-04-06T07:55:11.078Z,62.90
2018-04-06T07:56:13.666Z,61.50
2018-04-06T07:57:16.169Z,60.50
2018-04-06T07:58:18.675Z,60.20
2018-04-06T07:59:21.910Z,59.50
2018-04-06T08:00:24.419Z,59.30
2018-04-06T08:01:27.697Z,57.80
2018-04-06T08:02:30.963Z,57.40
2018-04-06T08:03:33.460Z,57.40
2018-04-06T08:04:36.743Z,57.10
2018-04-06T08:05:39.266Z,57.10
2018-04-06T08:06:41.773Z,58.20
2018-04-06T08:07:44.269Z,59.90
2018-04-06T08:08:47.520Z,59.30
2018-04-06T08:09:50.012Z,59.20
2018-04-06T08:10:53.289Z,61.20
2018-04-06T08:11:55.992Z,61.20
2018-04-06T08:12:59.265Z,61.80
2018-04-06T08:14:01.789Z,61.80
2018-04-06T08:15:04.308Z,60.50
2018-04-06T08:16:07.598Z,59.40
2018-04-06T08:17:10.918Z,61.20
2018-04-06T08:18:13.597Z,61.10
2018-04-06T08:19:16.141Z,62.60
2018-04-06T08:20:19.407Z,63.90
2018-04-06T08:21:21.937Z,63.90
2018-04-06T08:22:24.479Z,63.80
2018-04-06T08:23:26.968Z,63.10
2018-04-06T08:24:29.502Z,64.40
2018-04-06T08:25:32.807Z,65.00
2018-04-06T08:26:35.396Z,65.00
2018-04-06T08:27:37.906Z,65.30
2018-04-06T08:28:40.491Z,65.30
2018-04-06T08:29:43.203Z,66.30
2018-04-06T08:30:45.718Z,65.80
2018-04-06T08:31:48.319Z,65.60
2018-04-06T08:32:51.734Z,65.70
2018-04-06T08:33:54.272Z,65.60
2018-04-06T08:34:56.920Z,65.60
2018-04-06T08:35:59.473Z,65.30
2018-04-06T08:37:02.003Z,64.80
2018-04-06T08:38:05.289Z,63.30
2018-04-06T08:39:08.611Z,63.50
2018-04-06T08:40:11.388Z,63.60
2018-04-06T08:41:13.911Z,60.50
2018-04-06T08:42:16.471Z,60.10
2018-04-06T08:43:19.160Z,59.00
2018-04-06T08:44:21.874Z,59.10
2018-04-06T08:45:24.618Z,59.80
2018-04-06T08:46:27.914Z,60.10
2018-04-06T08:47:31.206Z,58.90
2018-04-06T08:48:34.503Z,59.00
2018-04-06T08:49:37.794Z,60.70
2018-04-06T08:50:40.318Z,60.60
2018-04-06T08:51:42.815Z,60.10
2018-04-06T08:52:46.095Z,58.20
2018-04-06T08:53:48.658Z,58.20
2018-04-06T08:54:51.297Z,60.30
2018-04-06T08:55:53.903Z,59.70
2018-04-06T08:56:57.202Z,59.30
2018-04-06T08:58:00.534Z,59.60
2018-04-06T08:59:03.302Z,58.90
2018-04-06T09:00:05.834Z,59.80
2018-04-06T09:01:08.398Z,60.10
2018-04-06T09:02:11.106Z,59.50
2018-04-06T09:03:13.675Z,57.20
2018-04-06T09:04:16.983Z,57.40
2018-04-06T09:05:19.544Z,57.30
2018-04-06T09:06:22.028Z,56.50
2018-04-06T09:07:24.560Z,57.40
2018-04-06T09:08:27.875Z,55.20
2018-04-06T09:09:30.410Z,55.10
2018-04-06T09:10:33.023Z,55.80
2018-04-06T09:11:35.532Z,56.10
2018-04-06T09:12:38.171Z,54.40
2018-04-06T09:13:40.721Z,55.30
2018-04-06T09:14:44.006Z,52.80
2018-04-06T09:15:46.620Z,52.70
2018-04-06T09:16:49.187Z,52.40
2018-04-06T09:17:51.707Z,53.30
2018-04-06T09:18:54.265Z,53.50
2018-04-06T09:19:56.777Z,53.30
2018-04-06T09:20:59.293Z,53.70
2018-04-06T09:22:02.136Z,52.80
2018-04-06T09:23:04.699Z,52.10
2018-04-06T09:24:07.217Z,52.50
2018-04-06T09:25:09.715Z,52.60
2018-04-06T09:26:13.133Z,51.20
2018-04-06T09:27:15.630Z,50.50
2018-04-06T09:28:18.153Z,48.50
2018-04-06T09:29:21.466Z,46.90
2018-04-06T09:30:24.714Z,48.20
2018-04-06T09:31:27.224Z,48.20
2018-04-06T09:32:29.894Z,50.40
2018-04-06T09:33:32.407Z,51.10
2018-04-06T09:34:34.920Z,51.50
2018-04-06T09:35:38.222Z,52.30
2018-04-06T09:36:40.748Z,52.30
2018-04-06T09:37:43.277Z,52.40
2018-04-06T09:38:45.780Z,52.10
2018-04-06T09:39:48.274Z,47.70
2018-04-06T09:40:50.784Z,47.90
2018-04-06T09:41:53.267Z,49.20
2018-04-06T09:42:55.750Z,50.00
2018-04-06T09:43:58.281Z,48.30
2018-04-06T09:45:01.566Z,49.10
2018-04-06T09:46:04.845Z,48.80
2018-04-06T09:47:08.131Z,49.30
2018-04-06T09:48:10.836Z,49.30
2018-04-06T09:49:13.507Z,49.40
2018-04-06T09:50:16.024Z,50.90
2018-04-06T09:51:18.518Z,52.60
2018-04-06T09:52:22.019Z,52.30
2018-04-06T09:53:25.308Z,51.00
2018-04-06T09:54:28.590Z,51.10
2018-04-06T09:55:31.861Z,51.50
2018-04-06T09:56:35.114Z,51.50
2018-04-06T09:57:37.615Z,51.60
2018-04-06T09:58:40.106Z,52.20
2018-04-06T09:59:42.617Z,49.40
2018-04-06T10:00:45.106Z,50.30
2018-04-06T10:01:47.603Z,49.20
2018-04-06T10:02:51.624Z,49.80
2018-04-06T10:03:54.905Z,47.60
2018-04-06T10:04:57.416Z,47.70
2018-04-06T10:05:59.932Z,48.00
2018-04-06T10:07:02.458Z,42.90
2018-04-06T10:08:04.952Z,41.00
2018-04-06T10:09:07.452Z,38.80
2018-04-06T10:10:10.016Z,38.00
2018-04-06T10:11:12.651Z,39.30
2018-04-06T10:12:15.138Z,40.30
2018-04-06T10:13:17.620Z,41.50
2018-04-06T10:14:20.394Z,42.40
2018-04-06T10:15:23.192Z,41.60
2018-04-06T10:16:25.839Z,40.90
2018-04-06T10:17:28.381Z,40.20
2018-04-06T10:18:30.918Z,38.80
2018-04-06T10:19:34.462Z,43.50
2018-04-06T10:20:37.005Z,43.60
2018-04-06T10:21:39.524Z,46.20
2018-04-06T10:22:42.027Z,47.60
2018-04-06T10:23:45.301Z,49.00
2018-04-06T10:24:48.627Z,47.80
2018-04-06T10:25:51.154Z,48.20
2018-04-06T10:26:53.650Z,48.90
2018-04-06T10:27:56.925Z,47.80
2018-04-06T10:29:00.186Z,49.20
2018-04-06T10:30:02.718Z,49.10
2018-04-06T10:31:05.292Z,50.40
2018-04-06T10:32:07.775Z,52.20
2018-04-06T10:33:10.561Z,55.00
2018-04-06T10:34:13.111Z,55.50
2018-04-06T10:35:15.700Z,56.40
2018-04-06T10:36:18.244Z,56.30
2018-04-06T10:37:20.758Z,57.10
2018-04-06T10:38:23.268Z,58.10
2018-04-06T10:39:26.537Z,58.30
2018-04-06T10:40:29.065Z,58.30
2018-04-06T10:41:31.613Z,56.50
2018-04-06T10:42:34.114Z,54.10
2018-04-06T10:43:36.648Z,51.80
2018-04-06T10:44:39.162Z,52.40
2018-04-06T10:45:41.694Z,53.20
2018-04-06T10:46:44.221Z,54.50
2018-04-06T10:47:46.846Z,55.60
2018-04-06T10:48:49.335Z,57.50
2018-04-06T10:49:51.843Z,57.10
2018-04-06T10:50:54.357Z,57.90
2018-04-06T10:51:56.846Z,60.00
2018-04-06T10:52:59.387Z,62.20
2018-04-06T10:54:01.881Z,65.30
2018-04-06T10:55:04.406Z,66.00
2018-04-06T10:56:06.880Z,65.90
2018-04-06T10:57:10.432Z,67.50
2018-04-06T10:58:13.075Z,67.40
2018-04-06T10:59:15.563Z,62.40
2018-04-06T11:00:18.061Z,62.60
2018-04-06T11:01:20.566Z,65.40
2018-04-06T11:02:23.862Z,65.70
2018-04-06T11:03:26.393Z,65.70
2018-04-06T11:04:28.892Z,65.40
2018-04-06T11:05:32.182Z,60.80
2018-04-06T11:06:35.438Z,62.10
2018-04-06T11:07:37.923Z,62.10
2018-04-06T11:08:40.435Z,58.90
2018-04-06T11:09:42.952Z,58.00
2018-04-06T11:10:45.450Z,58.00
2018-04-06T11:11:48.720Z,59.60
2018-04-06T11:12:51.988Z,60.40
2018-04-06T11:13:54.521Z,60.40
2018-04-06T11:14:57.018Z,61.10
2018-04-06T11:15:59.533Z,59.70
2018-04-06T11:17:02.030Z,60.50
2018-04-06T11:18:04.529Z,61.50
2018-04-06T11:19:07.039Z,62.00
2018-04-06T11:20:09.604Z,62.00
2018-04-06T11:21:12.244Z,62.50
2018-04-06T11:23:18.456Z,58.40
2018-04-06T11:24:21.708Z,57.40
2018-04-06T11:25:24.195Z,57.20
2018-04-06T11:26:26.701Z,59.50
2018-04-06T11:27:29.966Z,59.50
2018-04-06T11:28:32.491Z,59.50
2018-04-06T11:29:35.003Z,61.10
2018-04-06T11:30:37.497Z,60.40
2018-04-06T11:31:40.008Z,58.10
2018-04-06T11:32:42.531Z,58.10
2018-04-06T11:33:45.047Z,58.60
2018-04-06T11:34:47.540Z,57.40
2018-04-06T11:35:50.057Z,58.30
2018-04-06T11:36:53.326Z,58.80
2018-04-06T11:37:55.859Z,58.70
2018-04-06T11:38:58.357Z,57.70
2018-04-06T11:40:00.862Z,57.20
2018-04-06T11:41:04.192Z,55.70
2018-04-06T11:42:06.694Z,55.60
2018-04-06T11:43:09.323Z,55.60
2018-04-06T11:44:11.938Z,54.40
2018-04-06T11:45:14.479Z,54.70
2018-04-06T11:46:16.994Z,55.00
2018-04-06T11:47:19.495Z,54.00
2018-04-06T11:48:22.770Z,53.90
2018-04-06T11:49:26.083Z,54.20
2018-04-06T11:50:28.577Z,54.20
2018-04-06T11:51:31.109Z,53.60
2018-04-06T11:52:34.378Z,50.30
2018-04-06T11:53:36.890Z,50.30
2018-04-06T11:54:39.401Z,50.80
2018-04-06T11:55:41.928Z,50.40
2018-04-06T11:56:44.425Z,50.70
2018-04-06T11:57:46.930Z,51.10
2018-04-06T11:58:52.010Z,49.40
2018-04-06T11:59:54.684Z,49.90
2018-04-06T12:01:00.008Z,48.80
2018-04-06T12:02:03.486Z,48.10
2018-04-06T12:03:07.530Z,49.30
2018-04-06T12:04:10.086Z,50.20
2018-04-06T12:05:13.931Z,50.20
2018-04-06T12:06:18.012Z,46.00
2018-04-06T12:07:22.287Z,46.10
2018-04-06T12:08:25.887Z,44.70
2018-04-06T12:09:28.548Z,45.30
2018-04-06T12:10:31.811Z,45.00
2018-04-06T12:11:34.335Z,45.00
2018-04-06T12:12:36.854Z,46.30
2018-04-06T12:13:39.362Z,44.20
2018-04-06T12:14:41.850Z,44.20
2018-04-06T12:15:44.347Z,46.20
2018-04-06T12:16:46.891Z,46.60
2018-04-06T12:17:49.391Z,47.30
2018-04-06T12:18:51.907Z,47.80
2018-04-06T12:19:55.190Z,47.70
2018-04-06T12:20:58.468Z,48.00
2018-04-06T12:22:01.732Z,49.00
2018-04-06T12:23:04.211Z,48.20
2018-04-06T12:24:06.715Z,48.80
2018-04-06T12:25:09.307Z,49.50
2018-04-06T12:26:11.874Z,49.80
2018-04-06T12:27:14.384Z,50.40
2018-04-06T12:28:16.886Z,50.70
2018-04-06T12:29:20.671Z,48.70
2018-04-06T12:30:23.172Z,48.70
2018-04-06T12:31:25.706Z,47.00
2018-04-06T12:32:28.239Z,45.20
2018-04-06T12:33:30.720Z,44.10
2018-04-06T12:34:33.251Z,44.50
2018-04-06T12:35:36.518Z,43.40
2018-04-06T12:36:39.027Z,43.40
2018-04-06T12:37:41.563Z,43.80
2018-04-06T12:38:44.833Z,43.00
2018-04-06T12:39:47.332Z,43.00
2018-04-06T12:40:50.734Z,44.00
2018-04-06T12:41:53.244Z,44.00
2018-04-06T12:42:55.760Z,45.10
2018-04-06T12:43:59.011Z,42.40
2018-04-06T12:45:01.532Z,42.40
2018-04-06T12:46:04.028Z,41.40
2018-04-06T12:47:06.561Z,41.60
2018-04-06T12:48:10.097Z,40.90
2018-04-06T12:49:12.729Z,40.90
2018-04-06T12:50:16.000Z,41.40
2018-04-06T12:51:19.266Z,41.60
2018-04-06T12:52:21.794Z,41.60
2018-04-06T12:53:24.318Z,41.30
2018-04-06T12:54:26.801Z,40.80
2018-04-06T12:55:30.069Z,39.60
2018-04-06T12:56:32.628Z,39.60
2018-04-06T12:57:35.144Z,39.90
2018-04-06T12:58:38.434Z,39.50
2018-04-06T12:59:40.929Z,39.40
2018-04-06T13:00:43.440Z,39.10
2018-04-06T13:01:45.917Z,39.50
2018-04-06T13:02:48.416Z,40.10
2018-04-06T13:03:51.710Z,38.80
2018-04-06T13:04:55.770Z,38.40
2018-04-06T13:05:58.260Z,38.30
2018-04-06T13:07:00.957Z,38.20
2018-04-06T13:08:04.236Z,38.20
2018-04-06T13:09:07.538Z,37.90
2018-04-06T13:10:10.072Z,37.80
2018-04-06T13:11:12.691Z,37.90
2018-04-06T13:12:15.178Z,38.00
2018-04-06T13:13:17.686Z,38.50
2018-04-06T13:14:20.214Z,39.10
2018-04-06T13:15:22.709Z,39.90
2018-04-06T13:16:25.228Z,38.80
2018-04-06T13:17:28.504Z,38.10
2018-04-06T13:18:31.760Z,38.40
2018-04-06T13:19:34.281Z,38.40
2018-04-06T13:20:36.766Z,37.80
2018-04-06T13:21:39.264Z,37.90
2018-04-06T13:22:41.794Z,37.30
2018-04-06T13:23:44.276Z,37.20
2018-04-06T13:24:46.757Z,37.90
2018-04-06T13:25:49.247Z,37.00
2018-04-06T13:26:51.743Z,37.10
2018-04-06T13:27:54.228Z,38.10
2018-04-06T13:28:57.475Z,38.60